createdAt,value
2023-05-05T00:00:11.075Z,13.48
2023-05-05T00:01:11.081Z,13.51
2023-05-05T00:02:11.115Z,13.52
2023-05-05T00:03:11.165Z,13.52
2023-05-05T00:04:11.138Z,13.50
2023-05-05T00:05:11.084Z,13.51
2023-05-05T00:06:11.078Z,13.48
2023-05-05T00:07:11.079Z,13.51
2023-05-05T00:08:11.079Z,13.51
2023-05-05T00:09:11.076Z,13.52
2023-05-05T00:10:11.087Z,13.50
2023-05-05T00:11:11.087Z,13.50
2023-05-05T00:12:11.086Z,13.48
2023-05-05T00:13:11.114Z,13.50
2023-05-05T00:14:11.081Z,13.53
2023-05-05T00:15:11.079Z,13.54
2023-05-05T00:16:11.074Z,13.53
2023-05-05T00:17:11.189Z,13.45
2023-05-05T00:18:11.081Z,13.39
2023-05-05T00:19:11.083Z,13.36
2023-05-05T00:20:11.084Z,13.34
2023-05-05T00:21:11.100Z,13.31
2023-05-05T00:22:11.084Z,13.27
2023-05-05T00:23:11.087Z,13.29
2023-05-05T00:24:11.097Z,13.35
2023-05-05T00:25:11.079Z,13.39
2023-05-05T00:26:11.097Z,13.39
2023-05-05T00:27:11.078Z,13.36
2023-05-05T00:28:11.086Z,13.35
2023-05-05T00:29:11.089Z,13.32
2023-05-05T00:30:11.083Z,13.33
2023-05-05T00:31:11.172Z,13.31
2023-05-05T00:32:11.090Z,13.31
2023-05-05T00:33:11.116Z,13.34
2023-05-05T00:34:11.082Z,13.30
2023-05-05T00:35:11.113Z,13.27
2023-05-05T00:36:11.098Z,13.29
2023-05-05T00:37:11.087Z,13.33
2023-05-05T00:38:11.088Z,13.35
2023-05-05T00:39:11.086Z,13.33
2023-05-05T00:40:11.084Z,13.32
2023-05-05T00:41:11.094Z,13.28
2023-05-05T00:42:11.084Z,13.27
2023-05-05T00:43:11.086Z,13.25
2023-05-05T00:44:11.090Z,13.28
2023-05-05T00:45:11.091Z,13.27
2023-05-05T00:46:19.138Z,13.29
2023-05-05T00:47:11.099Z,13.27
2023-05-05T00:48:11.147Z,13.28
2023-05-05T00:49:11.119Z,13.23
2023-05-05T00:50:13.096Z,13.20
2023-05-05T00:51:12.087Z,13.27
2023-05-05T00:52:12.092Z,13.22
2023-05-05T00:53:12.098Z,13.27
2023-05-05T00:54:11.094Z,13.28
2023-05-05T00:55:11.086Z,13.26
2023-05-05T00:56:11.094Z,13.25
2023-05-05T00:57:11.092Z,13.25
2023-05-05T00:58:11.091Z,13.26
2023-05-05T00:59:11.094Z,13.29
2023-05-05T01:00:11.103Z,13.27
2023-05-05T01:01:11.188Z,13.26
2023-05-05T01:02:11.083Z,13.24
2023-05-05T01:03:11.095Z,13.16
2023-05-05T01:04:11.080Z,13.17
2023-05-05T01:05:11.072Z,13.17
2023-05-05T01:06:20.066Z,13.22
2023-05-05T01:07:23.068Z,13.27
2023-05-05T01:08:19.068Z,13.28
2023-05-05T01:09:19.068Z,13.32
2023-05-05T01:10:21.232Z,13.37
2023-05-05T01:11:19.069Z,13.41
2023-05-05T01:12:18.071Z,13.43
2023-05-05T01:13:21.073Z,13.46
2023-05-05T01:14:17.073Z,13.45
2023-05-05T01:15:21.062Z,13.49
2023-05-05T01:16:19.083Z,13.49
2023-05-05T01:17:18.072Z,13.46
2023-05-05T01:18:17.071Z,13.47
2023-05-05T01:19:19.070Z,13.41
2023-05-05T01:20:20.070Z,13.39
2023-05-05T01:21:21.071Z,13.38
2023-05-05T01:22:12.070Z,13.36
2023-05-05T01:23:15.072Z,13.32
2023-05-05T01:24:19.067Z,13.34
2023-05-05T01:25:19.063Z,13.33
2023-05-05T01:26:21.068Z,13.34
2023-05-05T01:27:19.073Z,13.31
2023-05-05T01:28:19.067Z,13.28
2023-05-05T01:29:19.065Z,13.27
2023-05-05T01:30:19.070Z,13.26
2023-05-05T01:31:19.081Z,13.29
2023-05-05T01:32:12.074Z,13.25
2023-05-05T01:33:14.066Z,13.29
2023-05-05T01:34:11.094Z,13.28
2023-05-05T01:35:20.077Z,13.26
2023-05-05T01:36:14.068Z,13.27
2023-05-05T01:37:14.067Z,13.29
2023-05-05T01:38:16.096Z,13.29
2023-05-05T01:39:14.068Z,13.26
2023-05-05T01:40:12.065Z,13.20
2023-05-05T01:41:16.084Z,13.24
2023-05-05T01:42:11.066Z,13.25
2023-05-05T01:43:12.064Z,13.25
2023-05-05T01:44:11.067Z,13.25
2023-05-05T01:45:12.075Z,13.17
2023-05-05T01:46:11.121Z,13.19
2023-05-05T01:47:11.075Z,13.11
2023-05-05T01:48:11.080Z,13.10
2023-05-05T01:49:11.083Z,13.13
2023-05-05T01:50:11.076Z,13.14
2023-05-05T01:51:11.072Z,13.12
2023-05-05T01:52:11.078Z,13.08
2023-05-05T01:53:11.066Z,13.12
2023-05-05T01:54:11.073Z,13.11
2023-05-05T01:55:11.061Z,13.14
2023-05-05T01:56:11.067Z,13.14
2023-05-05T01:57:11.078Z,13.07
2023-05-05T01:58:11.072Z,13.08
2023-05-05T01:59:11.077Z,13.05
2023-05-05T02:00:11.221Z,13.04
2023-05-05T02:01:11.102Z,13.03
2023-05-05T02:02:11.224Z,13.04
2023-05-05T02:03:12.163Z,13.09
2023-05-05T02:04:11.071Z,13.05
2023-05-05T02:05:11.068Z,13.06
2023-05-05T02:06:11.075Z,13.04
2023-05-05T02:07:12.065Z,13.02
2023-05-05T02:08:11.073Z,13.00
2023-05-05T02:09:12.085Z,13.00
2023-05-05T02:10:12.066Z,12.99
2023-05-05T02:11:11.071Z,13.01
2023-05-05T02:12:11.072Z,13.01
2023-05-05T02:13:12.221Z,13.02
2023-05-05T02:14:11.070Z,13.00
2023-05-05T02:15:11.074Z,13.02
2023-05-05T02:16:11.092Z,13.03
2023-05-05T02:17:11.082Z,13.01
2023-05-05T02:18:11.078Z,12.98
2023-05-05T02:19:11.073Z,13.00
2023-05-05T02:20:13.079Z,13.02
2023-05-05T02:21:11.074Z,13.00
2023-05-05T02:22:11.076Z,13.02
2023-05-05T02:23:11.072Z,13.03
2023-05-05T02:24:11.079Z,13.07
2023-05-05T02:25:11.073Z,13.00
2023-05-05T02:26:11.077Z,13.02
2023-05-05T02:27:11.086Z,13.10
2023-05-05T02:28:17.072Z,13.12
2023-05-05T02:29:17.080Z,13.15
2023-05-05T02:30:13.079Z,13.14
2023-05-05T02:31:11.114Z,13.15
2023-05-05T02:32:18.077Z,13.15
2023-05-05T02:33:12.097Z,13.17
2023-05-05T02:34:11.077Z,13.20
2023-05-05T02:35:16.175Z,13.23
2023-05-05T02:36:19.082Z,13.25
2023-05-05T02:37:12.080Z,13.26
2023-05-05T02:38:14.078Z,13.23
2023-05-05T02:39:19.087Z,13.24
2023-05-05T02:40:11.187Z,13.27
2023-05-05T02:41:15.075Z,13.27
2023-05-05T02:42:12.098Z,13.22
2023-05-05T02:43:15.199Z,13.18
2023-05-05T02:44:12.078Z,13.16
2023-05-05T02:45:17.101Z,13.20
2023-05-05T02:46:11.131Z,13.20
2023-05-05T02:47:11.078Z,13.25
2023-05-05T02:48:11.084Z,13.24
2023-05-05T02:49:11.075Z,13.24
2023-05-05T02:50:11.263Z,13.26
2023-05-05T02:51:11.077Z,13.26
2023-05-05T02:52:11.087Z,13.27
2023-05-05T02:53:11.078Z,13.24
2023-05-05T02:54:11.082Z,13.23
2023-05-05T02:55:11.077Z,13.20
2023-05-05T02:56:19.084Z,13.23
2023-05-05T02:57:11.078Z,13.27
2023-05-05T02:58:19.080Z,13.29
2023-05-05T02:59:19.096Z,13.29
2023-05-05T03:00:21.090Z,13.30
2023-05-05T03:01:19.099Z,13.27
2023-05-05T03:02:19.099Z,13.30
2023-05-05T03:03:21.127Z,13.30
2023-05-05T03:04:18.082Z,13.29
2023-05-05T03:05:19.085Z,13.28
2023-05-05T03:06:16.093Z,13.24
2023-05-05T03:07:19.084Z,13.26
2023-05-05T03:08:15.115Z,13.29
2023-05-05T03:09:19.078Z,13.33
2023-05-05T03:10:11.109Z,13.38
2023-05-05T03:11:15.095Z,13.38
2023-05-05T03:12:12.086Z,13.32
2023-05-05T03:13:11.136Z,13.27
2023-05-05T03:14:15.126Z,13.22
2023-05-05T03:15:11.085Z,13.22
2023-05-05T03:16:11.085Z,13.27
2023-05-05T03:17:12.084Z,13.21
2023-05-05T03:18:11.083Z,13.24
2023-05-05T03:19:11.082Z,13.17
2023-05-05T03:20:11.081Z,13.17
2023-05-05T03:21:12.086Z,13.17
2023-05-05T03:22:11.075Z,13.14
2023-05-05T03:23:11.087Z,13.12
2023-05-05T03:24:15.081Z,13.14
2023-05-05T03:25:11.079Z,13.15
2023-05-05T03:26:11.080Z,13.16
2023-05-05T03:27:11.128Z,13.08
2023-05-05T03:28:11.081Z,13.10
2023-05-05T03:29:11.079Z,13.06
2023-05-05T03:30:11.078Z,13.07
2023-05-05T03:31:11.077Z,13.09
2023-05-05T03:32:11.127Z,13.07
2023-05-05T03:33:11.081Z,13.05
2023-05-05T03:34:11.080Z,13.07
2023-05-05T03:35:11.082Z,13.09
2023-05-05T03:36:11.081Z,13.16
2023-05-05T03:37:11.089Z,13.17
2023-05-05T03:38:11.089Z,13.16
2023-05-05T03:39:11.081Z,13.13
2023-05-05T03:40:11.080Z,13.05
2023-05-05T03:41:11.086Z,13.12
2023-05-05T03:42:11.092Z,13.17
2023-05-05T03:43:11.088Z,13.22
2023-05-05T03:44:11.088Z,13.18
2023-05-05T03:45:11.082Z,13.21
2023-05-05T03:46:11.105Z,13.21
2023-05-05T03:47:11.085Z,13.20
2023-05-05T03:48:11.099Z,13.20
2023-05-05T03:49:11.087Z,13.15
2023-05-05T03:50:11.081Z,13.19
2023-05-05T03:51:11.084Z,13.20
2023-05-05T03:52:12.623Z,13.21
2023-05-05T03:53:11.085Z,13.21
2023-05-05T03:54:11.092Z,13.24
2023-05-05T03:55:11.098Z,13.26
2023-05-05T03:56:11.088Z,13.29
2023-05-05T03:57:11.105Z,13.25
2023-05-05T03:58:11.128Z,13.25
2023-05-05T03:59:11.090Z,13.20
2023-05-05T04:00:11.090Z,13.20
2023-05-05T04:01:11.062Z,13.19
2023-05-05T04:02:11.064Z,13.21
2023-05-05T04:03:11.303Z,13.17
2023-05-05T04:04:11.102Z,13.13
2023-05-05T04:05:11.071Z,13.16
2023-05-05T04:06:11.068Z,13.20
2023-05-05T04:07:11.063Z,13.19
2023-05-05T04:08:11.065Z,13.21
2023-05-05T04:09:11.070Z,13.22
2023-05-05T04:10:11.061Z,13.24
2023-05-05T04:11:11.071Z,13.23
2023-05-05T04:12:13.065Z,13.24
2023-05-05T04:13:11.245Z,13.19
2023-05-05T04:14:11.071Z,13.19
2023-05-05T04:15:11.067Z,13.17
2023-05-05T04:16:11.106Z,13.12
2023-05-05T04:17:12.066Z,13.11
2023-05-05T04:18:11.106Z,13.17
2023-05-05T04:19:11.065Z,13.10
2023-05-05T04:20:11.221Z,13.06
2023-05-05T04:21:11.066Z,13.06
2023-05-05T04:22:11.066Z,13.04
2023-05-05T04:23:11.067Z,13.03
2023-05-05T04:24:11.071Z,12.94
2023-05-05T04:25:11.064Z,12.92
2023-05-05T04:26:11.068Z,12.92
2023-05-05T04:27:11.068Z,12.92
2023-05-05T04:28:11.072Z,12.97
2023-05-05T04:29:11.065Z,12.97
2023-05-05T04:30:11.071Z,12.96
2023-05-05T04:31:11.099Z,12.98
2023-05-05T04:32:11.070Z,12.98
2023-05-05T04:33:11.069Z,12.97
2023-05-05T04:34:11.070Z,12.96
2023-05-05T04:35:11.087Z,12.96
2023-05-05T04:36:11.071Z,13.01
2023-05-05T04:37:11.078Z,12.99
2023-05-05T04:38:11.076Z,12.96
2023-05-05T04:39:12.068Z,12.97
2023-05-05T04:40:11.069Z,13.01
2023-05-05T04:41:12.080Z,13.03
2023-05-05T04:42:11.066Z,13.05
2023-05-05T04:43:11.090Z,13.07
2023-05-05T04:44:11.083Z,13.04
2023-05-05T04:45:11.086Z,13.00
2023-05-05T04:46:11.096Z,13.02
2023-05-05T04:47:13.264Z,13.03
2023-05-05T04:48:11.069Z,12.98
2023-05-05T04:49:11.067Z,12.97
2023-05-05T04:50:11.191Z,12.89
2023-05-05T04:51:11.076Z,12.97
2023-05-05T04:52:11.066Z,13.00
2023-05-05T04:53:11.074Z,12.99
2023-05-05T04:54:11.076Z,12.96
2023-05-05T04:55:11.070Z,12.95
2023-05-05T04:56:11.071Z,12.97
2023-05-05T04:57:11.074Z,12.95
2023-05-05T04:58:11.074Z,12.92
2023-05-05T04:59:11.071Z,12.91
2023-05-05T05:00:11.235Z,12.92
2023-05-05T05:01:11.070Z,12.95
2023-05-05T05:02:11.084Z,12.98
2023-05-05T05:03:11.127Z,12.92
2023-05-05T05:04:11.104Z,12.90
2023-05-05T05:05:11.078Z,12.90
2023-05-05T05:06:11.075Z,12.91
2023-05-05T05:07:11.073Z,12.92
2023-05-05T05:08:11.074Z,12.86
2023-05-05T05:09:11.073Z,12.92
2023-05-05T05:10:11.249Z,13.00
2023-05-05T05:11:11.072Z,13.01
2023-05-05T05:12:11.080Z,13.04
2023-05-05T05:13:12.783Z,13.06
2023-05-05T05:14:11.080Z,13.07
2023-05-05T05:15:11.086Z,13.05
2023-05-05T05:16:11.107Z,13.09
2023-05-05T05:17:11.097Z,13.12
2023-05-05T05:18:11.087Z,13.14
2023-05-05T05:19:11.082Z,13.12
2023-05-05T05:20:11.424Z,13.13
2023-05-05T05:21:11.080Z,13.17
2023-05-05T05:22:11.075Z,13.22
2023-05-05T05:23:11.075Z,13.27
2023-05-05T05:24:11.086Z,13.26
2023-05-05T05:25:11.087Z,13.23
2023-05-05T05:26:11.073Z,13.19
2023-05-05T05:27:13.085Z,13.19
2023-05-05T05:28:11.219Z,13.16
2023-05-05T05:29:11.073Z,13.22
2023-05-05T05:30:11.087Z,13.25
2023-05-05T05:31:11.076Z,13.28
2023-05-05T05:32:11.127Z,13.31
2023-05-05T05:33:11.192Z,13.31
2023-05-05T05:34:12.711Z,13.28
2023-05-05T05:35:11.074Z,13.32
2023-05-05T05:36:11.082Z,13.33
2023-05-05T05:37:11.076Z,13.37
2023-05-05T05:38:11.075Z,13.38
2023-05-05T05:39:11.074Z,13.41
2023-05-05T05:40:11.080Z,13.40
2023-05-05T05:41:11.068Z,13.41
2023-05-05T05:42:11.084Z,13.34
2023-05-05T05:43:11.107Z,13.36
2023-05-05T05:44:11.071Z,13.35
2023-05-05T05:45:11.073Z,13.28
2023-05-05T05:46:11.102Z,13.28
2023-05-05T05:47:11.080Z,13.30
2023-05-05T05:48:11.119Z,13.32
2023-05-05T05:49:11.083Z,13.37
2023-05-05T05:50:11.263Z,13.38
2023-05-05T05:51:11.074Z,13.33
2023-05-05T05:52:11.084Z,13.28
2023-05-05T05:53:11.077Z,13.32
2023-05-05T05:54:11.074Z,13.27
2023-05-05T05:55:11.075Z,13.27
2023-05-05T05:56:11.078Z,13.19
2023-05-05T05:57:11.078Z,13.23
2023-05-05T05:58:11.076Z,13.24
2023-05-05T05:59:12.076Z,13.23
2023-05-05T06:00:11.197Z,13.27
2023-05-05T06:01:11.080Z,13.20
2023-05-05T06:02:11.114Z,13.26
2023-05-05T06:03:11.325Z,13.25
2023-05-05T06:04:11.093Z,13.32
2023-05-05T06:05:11.075Z,13.28
2023-05-05T06:06:11.080Z,13.31
2023-05-05T06:07:11.075Z,13.31
2023-05-05T06:08:11.077Z,13.32
2023-05-05T06:09:11.077Z,13.36
2023-05-05T06:10:22.787Z,13.43
2023-05-05T06:11:13.806Z,13.44
2023-05-05T06:12:11.080Z,13.44
2023-05-05T06:13:11.223Z,13.41
2023-05-05T06:14:11.077Z,13.39
2023-05-05T06:15:11.083Z,13.38
2023-05-05T06:16:11.141Z,13.37
2023-05-05T06:17:11.078Z,13.36
2023-05-05T06:18:11.109Z,13.43
2023-05-05T06:19:14.084Z,13.47
2023-05-05T06:20:11.075Z,13.53
2023-05-05T06:21:11.075Z,13.56
2023-05-05T06:22:11.081Z,13.57
2023-05-05T06:23:11.081Z,13.64
2023-05-05T06:24:11.081Z,13.67
2023-05-05T06:25:11.086Z,13.68
2023-05-05T06:26:11.077Z,13.74
2023-05-05T06:27:11.076Z,13.77
2023-05-05T06:28:11.075Z,13.73
2023-05-05T06:29:12.330Z,13.72
2023-05-05T06:30:11.134Z,13.70
2023-05-05T06:31:11.104Z,13.61
2023-05-05T06:32:12.081Z,13.67
2023-05-05T06:33:11.076Z,13.60
2023-05-05T06:34:11.080Z,13.57
2023-05-05T06:35:11.084Z,13.59
2023-05-05T06:36:11.120Z,13.66
2023-05-05T06:37:11.104Z,13.72
2023-05-05T06:38:11.091Z,13.77
2023-05-05T06:39:11.084Z,13.84
2023-05-05T06:40:11.252Z,13.84
2023-05-05T06:41:11.080Z,13.82
2023-05-05T06:42:11.082Z,13.85
2023-05-05T06:43:11.088Z,13.88
2023-05-05T06:44:11.086Z,13.89
2023-05-05T06:45:11.082Z,13.90
2023-05-05T06:46:11.082Z,13.92
2023-05-05T06:47:11.097Z,13.90
2023-05-05T06:48:11.087Z,13.91
2023-05-05T06:49:11.085Z,13.92
2023-05-05T06:50:11.303Z,13.95
2023-05-05T06:51:11.091Z,13.94
2023-05-05T06:52:12.109Z,13.89
2023-05-05T06:53:11.091Z,13.92
2023-05-05T06:54:11.083Z,13.99
2023-05-05T06:55:11.089Z,13.90
2023-05-05T06:56:11.088Z,13.96
2023-05-05T06:57:11.084Z,14.02
2023-05-05T06:58:11.085Z,14.05
2023-05-05T06:59:11.088Z,14.16
2023-05-05T07:00:11.126Z,14.17
2023-05-05T07:01:11.112Z,14.25
2023-05-05T07:02:11.063Z,14.33
2023-05-05T07:03:11.157Z,14.36
2023-05-05T07:04:11.181Z,14.38
2023-05-05T07:05:11.089Z,14.47
2023-05-05T07:06:11.067Z,14.53
2023-05-05T07:07:11.067Z,14.62
2023-05-05T07:08:11.097Z,14.68
2023-05-05T07:09:11.063Z,14.75
2023-05-05T07:10:11.091Z,14.76
2023-05-05T07:11:11.086Z,14.75
2023-05-05T07:12:11.073Z,14.76
2023-05-05T07:13:11.206Z,14.76
2023-05-05T07:14:11.078Z,14.76
2023-05-05T07:15:23.299Z,14.64
2023-05-05T07:16:13.849Z,14.50
2023-05-05T07:17:11.106Z,14.58
2023-05-05T07:18:11.152Z,14.60
2023-05-05T07:19:11.066Z,14.58
2023-05-05T07:20:11.140Z,14.61
2023-05-05T07:21:11.065Z,14.64
2023-05-05T07:22:11.072Z,14.66
2023-05-05T07:23:11.072Z,14.71
2023-05-05T07:24:11.069Z,14.75
2023-05-05T07:25:11.075Z,14.75
2023-05-05T07:26:11.076Z,14.73
2023-05-05T07:27:11.069Z,14.63
2023-05-05T07:28:11.071Z,14.59
2023-05-05T07:29:11.068Z,14.54
2023-05-05T07:30:14.064Z,14.53
2023-05-05T07:31:13.037Z,14.52
2023-05-05T07:32:11.122Z,14.57
2023-05-05T07:33:11.122Z,14.51
2023-05-05T07:34:11.068Z,14.49
2023-05-05T07:35:11.071Z,14.44
2023-05-05T07:36:11.088Z,14.57
2023-05-05T07:37:11.068Z,14.59
2023-05-05T07:38:11.119Z,14.59
2023-05-05T07:39:11.082Z,14.58
2023-05-05T07:40:11.351Z,14.62
2023-05-05T07:41:11.077Z,14.63
2023-05-05T07:42:11.084Z,14.63
2023-05-05T07:43:11.071Z,14.64
2023-05-05T07:44:11.072Z,14.70
2023-05-05T07:45:11.084Z,14.75
2023-05-05T07:46:11.159Z,14.70
2023-05-05T07:47:11.075Z,14.74
2023-05-05T07:48:11.086Z,14.82
2023-05-05T07:49:11.068Z,14.90
2023-05-05T07:50:11.440Z,14.99
2023-05-05T07:51:11.079Z,15.01
2023-05-05T07:52:11.068Z,15.05
2023-05-05T07:53:14.905Z,15.09
2023-05-05T07:54:11.081Z,15.16
2023-05-05T07:55:11.074Z,15.26
2023-05-05T07:56:11.078Z,15.33
2023-05-05T07:57:11.076Z,15.36
2023-05-05T07:58:11.150Z,15.34
2023-05-05T07:59:11.078Z,15.39
2023-05-05T08:00:11.425Z,15.39
2023-05-05T08:01:11.141Z,15.46
2023-05-05T08:02:11.105Z,15.55
2023-05-05T08:03:12.165Z,15.59
2023-05-05T08:04:11.166Z,15.54
2023-05-05T08:05:11.230Z,15.48
2023-05-05T08:06:11.086Z,15.57
2023-05-05T08:07:11.071Z,15.59
2023-05-05T08:08:11.072Z,15.56
2023-05-05T08:09:11.078Z,15.64
2023-05-05T08:10:13.092Z,15.71
2023-05-05T08:11:11.077Z,15.76
2023-05-05T08:12:11.073Z,15.70
2023-05-05T08:13:11.104Z,15.81
2023-05-05T08:14:11.072Z,15.90
2023-05-05T08:15:11.312Z,15.91
2023-05-05T08:16:11.108Z,15.99
2023-05-05T08:17:11.084Z,16.01
2023-05-05T08:18:11.077Z,16.08
2023-05-05T08:19:25.074Z,16.02
2023-05-05T08:20:13.846Z,16.07
2023-05-05T08:21:11.085Z,16.11
2023-05-05T08:22:11.078Z,16.08
2023-05-05T08:23:11.079Z,16.10
2023-05-05T08:24:11.084Z,16.21
2023-05-05T08:25:11.091Z,16.24
2023-05-05T08:26:11.077Z,16.28
2023-05-05T08:27:11.079Z,16.28
2023-05-05T08:28:11.076Z,16.28
2023-05-05T08:29:11.074Z,16.47
2023-05-05T08:30:11.079Z,16.43
2023-05-05T08:31:11.108Z,16.62
2023-05-05T08:32:11.094Z,16.83
2023-05-05T08:33:11.109Z,16.90
2023-05-05T08:34:11.086Z,16.85
2023-05-05T08:35:11.816Z,16.83
2023-05-05T08:36:11.085Z,16.91
2023-05-05T08:37:11.096Z,16.92
2023-05-05T08:38:11.093Z,16.98
2023-05-05T08:39:11.078Z,17.12
2023-05-05T08:40:12.112Z,17.18
2023-05-05T08:41:12.124Z,17.03
2023-05-05T08:42:11.187Z,16.84
2023-05-05T08:43:11.185Z,16.91
2023-05-05T08:44:11.299Z,16.91
2023-05-05T08:45:11.512Z,16.80
2023-05-05T08:46:12.149Z,16.77
2023-05-05T08:47:12.122Z,16.74
2023-05-05T08:48:11.160Z,16.62
2023-05-05T08:49:15.196Z,16.63
2023-05-05T08:50:11.112Z,16.70
2023-05-05T08:51:13.123Z,16.86
2023-05-05T08:52:11.121Z,17.01
2023-05-05T08:53:17.245Z,17.05
2023-05-05T08:54:16.077Z,17.03
2023-05-05T08:55:14.087Z,17.07
2023-05-05T08:56:12.183Z,17.02
2023-05-05T08:57:11.080Z,17.07
2023-05-05T08:58:11.087Z,16.97
2023-05-05T08:59:11.090Z,16.98
2023-05-05T09:00:11.090Z,16.93
2023-05-05T09:01:11.202Z,16.86
2023-05-05T09:02:11.126Z,16.75
2023-05-05T09:03:11.226Z,16.75
2023-05-05T09:04:11.122Z,16.62
2023-05-05T09:05:11.282Z,16.58
2023-05-05T09:06:11.093Z,16.33
2023-05-05T09:07:11.117Z,16.32
2023-05-05T09:08:13.092Z,16.27
2023-05-05T09:09:11.109Z,16.34
2023-05-05T09:10:11.102Z,16.43
2023-05-05T09:11:11.080Z,16.51
2023-05-05T09:12:11.097Z,16.60
2023-05-05T09:13:11.118Z,16.55
2023-05-05T09:14:11.089Z,16.55
2023-05-05T09:15:11.098Z,16.62
2023-05-05T09:16:11.113Z,16.56
2023-05-05T09:17:19.091Z,16.50
2023-05-05T09:18:11.155Z,16.41
2023-05-05T09:19:11.086Z,16.42
2023-05-05T09:20:13.104Z,16.43
2023-05-05T09:21:19.088Z,16.31
2023-05-05T09:22:11.095Z,16.28
2023-05-05T09:23:15.082Z,16.32
2023-05-05T09:24:13.101Z,16.37
2023-05-05T09:25:14.096Z,16.55
2023-05-05T09:26:12.108Z,16.71
2023-05-05T09:27:19.089Z,16.81
2023-05-05T09:28:16.104Z,17.02
2023-05-05T09:29:15.086Z,17.18
2023-05-05T09:30:11.115Z,17.33
2023-05-05T09:31:15.161Z,17.57
2023-05-05T09:32:12.097Z,17.75
2023-05-05T09:33:11.149Z,17.83
2023-05-05T09:34:15.100Z,17.88
2023-05-05T09:35:11.091Z,17.77
2023-05-05T09:36:11.090Z,17.66
2023-05-05T09:37:11.099Z,17.77
2023-05-05T09:38:13.087Z,17.68
2023-05-05T09:39:11.111Z,17.69
2023-05-05T09:40:11.086Z,17.81
2023-05-05T09:41:11.092Z,17.82
2023-05-05T09:42:19.089Z,17.71
2023-05-05T09:43:11.314Z,17.69
2023-05-05T09:44:12.114Z,17.69
2023-05-05T09:45:19.094Z,17.57
2023-05-05T09:46:11.152Z,17.61
2023-05-05T09:47:22.112Z,17.42
2023-05-05T09:48:22.414Z,17.22
2023-05-05T09:49:13.092Z,17.45
2023-05-05T09:50:11.101Z,17.48
2023-05-05T09:51:11.088Z,17.57
2023-05-05T09:52:15.101Z,17.66
2023-05-05T09:53:11.096Z,17.53
2023-05-05T09:54:15.100Z,17.42
2023-05-05T09:55:17.085Z,17.43
2023-05-05T09:56:11.096Z,17.37
2023-05-05T09:57:15.090Z,17.35
2023-05-05T09:58:21.223Z,17.31
2023-05-05T09:59:11.093Z,17.30
2023-05-05T10:00:11.338Z,17.44
2023-05-05T10:01:19.083Z,17.76
2023-05-05T10:02:13.075Z,17.95
2023-05-05T10:03:11.083Z,18.15
2023-05-05T10:04:17.081Z,18.36
2023-05-05T10:05:15.126Z,18.53
2023-05-05T10:06:11.067Z,18.76
2023-05-05T10:07:15.089Z,18.70
2023-05-05T10:08:13.078Z,18.86
2023-05-05T10:09:11.068Z,19.00
2023-05-05T10:10:13.087Z,19.12
2023-05-05T10:11:11.079Z,19.03
2023-05-05T10:12:11.083Z,19.01
2023-05-05T10:13:11.135Z,19.04
2023-05-05T10:14:12.060Z,19.05
2023-05-05T10:15:11.058Z,19.30
2023-05-05T10:16:12.095Z,19.57
2023-05-05T10:17:11.063Z,19.60
2023-05-05T10:18:11.122Z,19.41
2023-05-05T10:19:11.060Z,19.31
2023-05-05T10:20:12.065Z,19.47
2023-05-05T10:21:12.066Z,19.65
2023-05-05T10:22:12.060Z,19.74
2023-05-05T10:23:14.073Z,19.79
2023-05-05T10:24:20.060Z,19.93
2023-05-05T10:25:13.065Z,19.81
2023-05-05T10:26:11.082Z,19.71
2023-05-05T10:27:17.072Z,19.73
2023-05-05T10:28:13.061Z,19.64
2023-05-05T10:29:16.069Z,19.63
2023-05-05T10:30:16.082Z,19.65
2023-05-05T10:31:25.765Z,19.77
2023-05-05T10:32:47.206Z,19.62
2023-05-05T10:33:31.538Z,19.49
2023-05-05T10:34:19.070Z,19.30
2023-05-05T10:35:11.074Z,19.09
2023-05-05T10:36:11.071Z,18.96
2023-05-05T10:37:11.071Z,18.89
2023-05-05T10:38:11.077Z,18.83
2023-05-05T10:39:14.072Z,18.83
2023-05-05T10:40:11.249Z,18.92
2023-05-05T10:41:11.075Z,18.95
2023-05-05T10:42:11.109Z,19.02
2023-05-05T10:43:11.071Z,19.13
2023-05-05T10:44:11.116Z,19.11
2023-05-05T10:45:11.091Z,19.04
2023-05-05T10:46:11.098Z,19.14
2023-05-05T10:47:11.083Z,19.28
2023-05-05T10:48:14.129Z,19.19
2023-05-05T10:49:19.078Z,19.26
2023-05-05T10:50:19.074Z,19.32
2023-05-05T10:51:30.963Z,19.23
2023-05-05T10:52:21.386Z,19.08
2023-05-05T10:53:21.095Z,19.13
2023-05-05T10:54:21.190Z,19.14
2023-05-05T10:55:17.076Z,19.23
2023-05-05T10:56:21.086Z,19.44
2023-05-05T10:57:12.079Z,19.47
2023-05-05T10:58:15.076Z,19.62
2023-05-05T10:59:19.078Z,19.53
2023-05-05T11:00:11.420Z,19.54
2023-05-05T11:01:11.106Z,19.50
2023-05-05T11:02:19.086Z,19.58
2023-05-05T11:03:20.196Z,19.78
2023-05-05T11:04:19.083Z,19.90
2023-05-05T11:05:15.227Z,19.84
2023-05-05T11:06:12.081Z,19.83
2023-05-05T11:07:19.079Z,19.89
2023-05-05T11:08:19.091Z,19.98
2023-05-05T11:09:19.093Z,20.16
2023-05-05T11:10:11.414Z,20.09
2023-05-05T11:11:11.077Z,20.08
2023-05-05T11:12:11.084Z,20.15
2023-05-05T11:13:17.169Z,19.99
2023-05-05T11:14:19.076Z,19.79
2023-05-05T11:15:19.085Z,19.61
2023-05-05T11:16:19.133Z,19.42
2023-05-05T11:17:19.080Z,19.24
2023-05-05T11:18:19.088Z,19.15
2023-05-05T11:19:19.081Z,19.07
2023-05-05T11:20:11.093Z,19.06
2023-05-05T11:21:16.074Z,19.06
2023-05-05T11:22:11.085Z,19.15
2023-05-05T11:23:19.088Z,19.21
2023-05-05T11:24:19.095Z,19.26
2023-05-05T11:25:19.078Z,19.38
2023-05-05T11:26:11.089Z,19.54
2023-05-05T11:27:11.078Z,19.63
2023-05-05T11:28:15.090Z,19.79
2023-05-05T11:29:11.081Z,19.83
2023-05-05T11:30:11.275Z,19.99
2023-05-05T11:31:17.127Z,19.82
2023-05-05T11:32:13.095Z,19.65
2023-05-05T11:33:19.083Z,19.64
2023-05-05T11:34:21.092Z,19.67
2023-05-05T11:35:11.093Z,19.65
2023-05-05T11:36:15.085Z,19.61
2023-05-05T11:37:11.087Z,19.62
2023-05-05T11:38:11.089Z,19.61
2023-05-05T11:39:23.157Z,19.52
2023-05-05T11:40:21.076Z,19.37
2023-05-05T11:41:17.086Z,19.38
2023-05-05T11:42:21.089Z,19.37
2023-05-05T11:43:11.089Z,19.44
2023-05-05T11:44:19.079Z,19.51
2023-05-05T11:45:19.086Z,19.37
2023-05-05T11:46:15.133Z,19.43
2023-05-05T11:47:19.089Z,19.54
2023-05-05T11:48:19.081Z,19.37
2023-05-05T11:49:11.087Z,19.32
2023-05-05T11:50:17.104Z,19.32
2023-05-05T11:51:12.099Z,19.16
2023-05-05T11:52:14.086Z,19.12
2023-05-05T11:53:11.080Z,19.09
2023-05-05T11:54:11.089Z,18.91
2023-05-05T11:55:11.085Z,18.73
2023-05-05T11:56:13.094Z,18.66
2023-05-05T11:57:11.093Z,18.67
2023-05-05T11:58:19.079Z,18.92
2023-05-05T11:59:11.086Z,19.08
2023-05-05T12:00:11.308Z,19.28
2023-05-05T12:01:11.085Z,19.48
2023-05-05T12:02:11.088Z,19.47
2023-05-05T12:03:11.136Z,19.59
2023-05-05T12:04:13.256Z,19.60
2023-05-05T12:05:11.100Z,19.47
2023-05-05T12:06:11.082Z,19.45
2023-05-05T12:07:17.084Z,19.26
2023-05-05T12:08:11.087Z,19.19
2023-05-05T12:09:15.105Z,19.04
2023-05-05T12:10:11.146Z,18.90
2023-05-05T12:11:11.087Z,18.74
2023-05-05T12:12:11.088Z,18.71
2023-05-05T12:13:19.287Z,18.58
2023-05-05T12:14:11.083Z,18.42
2023-05-05T12:15:11.090Z,18.29
2023-05-05T12:16:13.180Z,18.19
2023-05-05T12:17:11.088Z,18.18
2023-05-05T12:18:19.101Z,18.20
2023-05-05T12:19:11.087Z,18.20
2023-05-05T12:20:11.388Z,18.21
2023-05-05T12:21:20.090Z,18.21
2023-05-05T12:22:11.097Z,18.19
2023-05-05T12:23:11.094Z,18.31
2023-05-05T12:24:14.086Z,18.45
2023-05-05T12:25:11.092Z,18.68
2023-05-05T12:26:15.095Z,18.80
2023-05-05T12:27:11.113Z,19.08
2023-05-05T12:28:11.096Z,19.33
2023-05-05T12:29:11.116Z,19.54
2023-05-05T12:30:16.121Z,19.75
2023-05-05T12:31:11.207Z,19.74
2023-05-05T12:32:19.111Z,19.89
2023-05-05T12:33:11.093Z,20.10
2023-05-05T12:34:11.152Z,19.83
2023-05-05T12:35:11.092Z,19.82
2023-05-05T12:36:11.099Z,19.95
2023-05-05T12:37:11.098Z,20.11
2023-05-05T12:38:11.097Z,20.22
2023-05-05T12:39:11.096Z,20.33
2023-05-05T12:40:19.096Z,20.35
2023-05-05T12:41:11.089Z,20.46
2023-05-05T12:42:11.123Z,20.30
2023-05-05T12:43:15.097Z,20.31
2023-05-05T12:44:11.131Z,20.43
2023-05-05T12:45:16.095Z,20.34
2023-05-05T12:46:11.270Z,20.23
2023-05-05T12:47:13.115Z,20.21
2023-05-05T12:48:19.095Z,20.31
2023-05-05T12:49:11.105Z,20.38
2023-05-05T12:50:11.307Z,20.38
2023-05-05T12:51:17.117Z,20.41
2023-05-05T12:52:11.096Z,20.28